• Join FlightAware (Why Join?)
  • Login
  • US Flag 
03:46AM EDT


 

Airport Tracker/Info


-or-


 

Live Flight TrackerFlight Track Log ✈ SKQ227 ✈ 27-Apr-2013 ✈ KPWK - KOSU

Flight Track Log - Related Links

Times and Time Zones

All times are in EDT time to prevent confusion due to time zone crossing. See the SKQ227 flight status page for this flight to view local times or setup timezone preferences in your user account.

Time Position Orientation Groundspeed Altitude Reporting Facility
EDT Latitude Longitude Course Direction KTS MPH feet Rate Location/Type
11:35PM 42.1333 -87.8833 114° Southeast 122 140 1,300  Level Chicago TRACON
11:36PM 42.1500 -87.8333 66° East 144 166 1,900 360 Climbing Chicago TRACON
11:37PM 42.1503 -87.8114 89° East 150 173 1,900 600 Level Chicago Center
11:38PM 42.1533 -87.7658 85° East 141 162 2,900 900 Climbing Chicago Center
11:39PM 42.1567 -87.7114 85° East 143 165 3,800 840 Climbing Chicago Center
11:40PM 42.1519 -87.6608 97° East 139 160 4,600 540 Climbing Chicago Center
11:41PM 41.9904 -87.5839 114° Southeast  Level Estimated
11:41PM 42.1456 -87.6067 99° East 143 165 5,000  Level Chicago Center
11:42PM 42.1336 -87.5444 104° East 165 190 5,000  Level Chicago Center
11:43PM 42.1167 -87.4667 106° East 170 196 5,000  Level Chicago TRACON
11:44PM 42.1167 -87.4000 90° East 173 199 5,000  Level Chicago TRACON
11:45PM 42.1167 -87.3333 90° East 172 198 5,000  Level Chicago TRACON
11:46PM 42.1000 -87.2833 114° Southeast 171 197 5,000  Level Chicago TRACON
11:47PM 42.1006 -87.2172 89° East 170 196 5,000  Level Chicago Center
11:48PM 42.0939 -87.1544 98° East 171 197 5,000  Level Chicago Center
11:49PM 42.0878 -87.0925 98° East 169 194 5,000  Level Chicago Center
11:50PM 42.0617 -87.0444 126° Southeast 171 197 5,000  Level Chicago Center
11:51PM 42.0350 -86.9892 123° Southeast 167 192 5,000  Level Chicago Center
11:52PM 42.0111 -86.9372 122° Southeast 164 189 5,000  Level Chicago Center
11:53PM 41.9861 -86.8850 123° Southeast 166 191 5,000  Level Chicago Center
11:54PM 41.9608 -86.8322 123° Southeast 167 192 5,000  Level Chicago Center
11:55PM 41.9364 -86.7811 123° Southeast 165 190 5,000  Level Chicago Center
11:56PM 41.9125 -86.7289 122° Southeast 166 191 5,000  Level Chicago Center
11:57PM 41.8889 -86.6778 122° Southeast 169 194 5,000  Level Chicago Center
11:58PM 41.8636 -86.6256 123° Southeast 168 193 5,000  Level Chicago Center
11:59PM 41.8383 -86.5736 123° Southeast 168 193 5,000  Level Chicago Center
12:00AM 41.8139 -86.5211 122° Southeast 167 192 5,000  Level Chicago Center
12:01AM 41.7892 -86.4692 123° Southeast 166 191 5,000  Level Chicago Center
12:02AM 41.7642 -86.4169 123° Southeast 168 193 5,000  Level Chicago Center
12:03AM 41.7397 -86.3658 123° Southeast 165 190 5,000  Level Chicago Center
12:04AM 41.7150 -86.3144 123° Southeast 164 189 5,000  Level Chicago Center
12:05AM 41.6850 -86.2511 122° Southeast 168 193 5,000  Level Chicago Center
12:06AM 41.6594 -86.1992 123° Southeast 169 194 5,000  Level Chicago Center
12:07AM 41.6339 -86.1458 123° Southeast 169 194 5,000  Level Chicago Center
12:08AM 41.6100 -86.0936 121° Southeast 168 193 5,000  Level Chicago Center
12:09AM 41.5847 -86.0425 123° Southeast 166 191 5,000  Level Chicago Center
12:10AM 41.5603 -85.9925 123° Southeast 163 188 5,000  Level Chicago Center
12:11AM 41.5358 -85.9408 122° Southeast 165 190 5,000  Level Chicago Center
12:12AM 41.5122 -85.8919 123° Southeast 160 184 5,000  Level Chicago Center
12:13AM 41.4875 -85.8425 124° Southeast 160 184 5,000  Level Chicago Center
12:14AM 41.4636 -85.7917 122° Southeast 162 186 5,000  Level Chicago Center
12:15AM 41.4400 -85.7433 123° Southeast 159 183 5,000  Level Chicago Center
12:16AM 41.4164 -85.6939 122° Southeast 159 183 5,000  Level Chicago Center
12:17AM 41.3922 -85.6467 124° Southeast 157 181 5,000  Level Chicago Center
12:18AM 41.3683 -85.5972 123° Southeast 158 182 5,000  Level Chicago Center
12:19AM 41.3444 -85.5481 123° Southeast 159 183 5,000  Level Chicago Center
12:20AM 41.3206 -85.4986 123° Southeast 159 183 5,000  Level Chicago Center
12:21AM 41.2967 -85.4497 123° Southeast 159 183 5,000  Level Chicago Center
12:22AM 41.2725 -85.4006 123° Southeast 159 183 5,000  Level Chicago Center
12:23AM 41.2472 -85.3497 123° Southeast 161 185 5,000  Level Chicago Center
12:24AM 41.2236 -85.2994 122° Southeast 162 186 5,000  Level Chicago Center
12:25AM 41.1972 -85.2483 124° Southeast 165 190 5,000 -60 Level Chicago Center
12:26AM 41.1725 -85.1969 123° Southeast 166 191 4,900  Descending Chicago Center
12:27AM 41.1478 -85.1469 123° Southeast 164 189 5,000  Climbing Chicago Center
12:28AM 41.1225 -85.0969 124° Southeast 164 189 5,000  Level Chicago Center
12:29AM 41.0972 -85.0467 124° Southeast 164 189 5,000  Level Chicago Center
12:30AM 41.0725 -84.9964 123° Southeast 164 189 5,000  Level Chicago Center
12:31AM 41.0483 -84.9467 123° Southeast 163 188 5,000 -60 Level Chicago Center
12:32AM 41.0225 -84.8969 125° Southeast 163 188 4,900  Descending Chicago Center
12:33AM 40.9981 -84.8469 123° Southeast 163 188 5,000  Climbing Chicago Center
12:34AM 40.9736 -84.7992 124° Southeast 160 184 5,000  Level Chicago Center
12:35AM 40.9483 -84.7475 123° Southeast 163 188 5,000  Level Chicago Center
12:36AM 40.9236 -84.6989 124° Southeast 163 188 5,000  Level Chicago Center
12:37AM 40.8989 -84.6494 123° Southeast 161 185 5,000  Level Chicago Center
12:38AM 40.8733 -84.6003 124° Southeast 163 188 5,000  Level Chicago Center
12:39AM 40.8483 -84.5497 123° Southeast 164 189 5,000  Level Chicago Center
12:40AM 40.8231 -84.4997 124° Southeast 164 189 5,000 -60 Level Chicago Center
12:41AM 40.7978 -84.4494 124° Southeast 164 189 4,900  Descending Chicago Center
12:42AM 40.7725 -84.4003 124° Southeast 164 189 5,000  Climbing Chicago Center
12:43AM 40.7469 -84.3494 124° Southeast 165 190 5,000 60 Level Chicago Center
12:43AM 40.7325 -84.3267 130° Southeast 164 189 5,100  Climbing Indianapolis Center
12:44AM 40.7033 -84.2703 124° Southeast 164 189 5,000 -120 Descending Indianapolis Center
12:45AM 40.6786 -84.2206 123° Southeast 164 189 4,900 -60 Descending Indianapolis Center
12:47AM 40.6528 -84.1697 124° Southeast 165 190 4,900  Level Indianapolis Center
12:48AM 40.6264 -84.1192 125° Southeast 166 191 4,900  Level Indianapolis Center
12:49AM 40.6006 -84.0683 124° Southeast 166 191 4,900  Level Indianapolis Center
12:50AM 40.5750 -84.0178 124° Southeast 165 190 4,900  Level Indianapolis Center
12:51AM 40.5489 -83.9689 125° Southeast 163 188 4,900  Level Indianapolis Center
12:52AM 40.5208 -83.9189 126° Southeast 163 188 5,000  Climbing Indianapolis Center
12:53AM 40.4953 -83.8692 124° Southeast 164 189 5,000 -60 Level Indianapolis Center
12:54AM 40.4714 -83.8183 122° Southeast 164 189 4,900 -60 Descending Indianapolis Center
12:55AM 40.4506 -83.7772 124° Southeast 164 189 4,900  Level Indianapolis Center
12:56AM 40.4242 -83.7278 125° Southeast 163 188 4,900  Level Indianapolis Center
12:57AM 40.3983 -83.6786 125° Southeast 163 188 4,900  Level Indianapolis Center
12:58AM 40.3733 -83.6297 124° Southeast 161 185 4,900  Level Indianapolis Center
12:59AM 40.3478 -83.5817 125° Southeast 160 184 4,900 -60 Level Indianapolis Center
01:00AM 40.3211 -83.5331 126° Southeast 161 185 4,800 -180 Descending Indianapolis Center
01:01AM 40.2908 -83.4872 131° Southeast 162 186 4,600 -300 Descending Indianapolis Center
01:02AM 40.2608 -83.4397 130° Southeast 167 192 4,300 -360 Descending Indianapolis Center
01:03AM 40.2308 -83.3897 128° Southeast 165 190 3,900 -420 Descending Indianapolis Center
01:04AM 40.2042 -83.3417 126° Southeast 167 192 3,500 -420 Descending Indianapolis Center